sensor_id;sensor_type;location;lat;lon;timestamp;P1;durP1;ratioP1;P2;durP2;ratioP2
62353;SDS011;48391;49.184;2.418;2023-09-12T06:12:13;2.28;;;2.08;;
62353;SDS011;48391;49.184;2.418;2023-09-12T06:14:39;1.33;;;1.33;;
62353;SDS011;48391;49.184;2.418;2023-09-12T06:17:05;4.30;;;3.90;;
62353;SDS011;48391;49.184;2.418;2023-09-12T06:19:31;2.88;;;2.67;;
62353;SDS011;48391;49.184;2.418;2023-09-12T06:21:57;6.95;;;3.97;;
62353;SDS011;48391;49.184;2.418;2023-09-12T06:24:23;4.07;;;3.15;;
62353;SDS011;48391;49.184;2.418;2023-09-12T06:26:49;4.32;;;3.22;;
62353;SDS011;48391;49.184;2.418;2023-09-12T06:29:16;2.58;;;2.35;;
62353;SDS011;48391;49.184;2.418;2023-09-12T06:31:42;1.83;;;1.73;;
62353;SDS011;48391;49.184;2.418;2023-09-12T06:34:08;3.60;;;3.30;;
62353;SDS011;48391;49.184;2.418;2023-09-12T06:36:34;2.78;;;2.53;;
62353;SDS011;48391;49.184;2.418;2023-09-12T06:39:01;2.50;;;2.30;;
62353;SDS011;48391;49.184;2.418;2023-09-12T06:41:29;1.70;;;1.60;;
62353;SDS011;48391;49.184;2.418;2023-09-12T06:43:55;2.28;;;2.05;;
62353;SDS011;48391;49.184;2.418;2023-09-12T06:46:23;3.70;;;2.88;;
62353;SDS011;48391;49.184;2.418;2023-09-12T06:48:49;2.75;;;2.55;;
62353;SDS011;48391;49.184;2.418;2023-09-12T06:51:16;2.97;;;2.42;;
62353;SDS011;48391;49.184;2.418;2023-09-12T06:53:42;3.10;;;2.28;;
62353;SDS011;48391;49.184;2.418;2023-09-12T06:56:08;3.63;;;2.58;;
62353;SDS011;48391;49.184;2.418;2023-09-12T06:58:34;3.15;;;2.85;;
62353;SDS011;48391;49.184;2.418;2023-09-12T07:01:04;3.38;;;2.88;;
62353;SDS011;48391;49.184;2.418;2023-09-12T07:03:31;2.60;;;2.40;;
62353;SDS011;48391;49.184;2.418;2023-09-12T07:05:57;1.58;;;1.48;;
62353;SDS011;48391;49.184;2.418;2023-09-12T07:08:23;2.47;;;2.28;;
62353;SDS011;48391;49.184;2.418;2023-09-12T07:10:49;3.00;;;2.55;;
62353;SDS011;48391;49.184;2.418;2023-09-12T07:13:15;1.90;;;1.77;;
62353;SDS011;48391;49.184;2.418;2023-09-12T07:15:41;3.13;;;2.60;;
62353;SDS011;48391;49.184;2.418;2023-09-12T07:18:07;2.20;;;2.00;;
62353;SDS011;48391;49.184;2.418;2023-09-12T07:20:34;2.08;;;1.98;;
62353;SDS011;48391;49.184;2.418;2023-09-12T07:23:00;2.50;;;2.22;;
62353;SDS011;48391;49.184;2.418;2023-09-12T07:25:26;2.30;;;2.10;;
62353;SDS011;48391;49.184;2.418;2023-09-12T07:27:52;4.47;;;3.33;;
62353;SDS011;48391;49.184;2.418;2023-09-12T07:30:18;1.95;;;1.85;;
62353;SDS011;48391;49.184;2.418;2023-09-12T07:32:44;1.90;;;1.50;;
62353;SDS011;48391;49.184;2.418;2023-09-12T07:35:11;1.70;;;1.60;;
62353;SDS011;48391;49.184;2.418;2023-09-12T07:37:37;2.97;;;2.03;;
62353;SDS011;48391;49.184;2.418;2023-09-12T07:40:03;1.85;;;1.75;;
62353;SDS011;48391;49.184;2.418;2023-09-12T07:42:34;1.55;;;1.48;;
62353;SDS011;48391;49.184;2.418;2023-09-12T07:45:01;1.80;;;1.70;;
62353;SDS011;48391;49.184;2.418;2023-09-12T07:47:28;1.63;;;1.38;;
62353;SDS011;48391;49.184;2.418;2023-09-12T07:49:54;1.27;;;1.10;;
62353;SDS011;48391;49.184;2.418;2023-09-12T07:52:20;1.25;;;1.05;;
62353;SDS011;48391;49.184;2.418;2023-09-12T07:54:46;1.30;;;1.20;;
62353;SDS011;48391;49.184;2.418;2023-09-12T07:57:12;2.35;;;1.90;;
62353;SDS011;48391;49.184;2.418;2023-09-12T07:59:38;2.88;;;2.17;;
62353;SDS011;48391;49.184;2.418;2023-09-12T08:02:04;2.70;;;1.77;;
62353;SDS011;48391;49.184;2.418;2023-09-12T08:04:30;1.23;;;0.90;;
62353;SDS011;48391;49.184;2.418;2023-09-12T08:06:56;1.75;;;1.17;;
62353;SDS011;48391;49.184;2.418;2023-09-12T08:09:22;1.20;;;0.90;;
62353;SDS011;48391;49.184;2.418;2023-09-12T08:11:48;1.25;;;1.15;;
62353;SDS011;48391;49.184;2.418;2023-09-12T08:14:14;1.95;;;1.33;;
62353;SDS011;48391;49.184;2.418;2023-09-12T08:16:40;0.80;;;0.65;;
62353;SDS011;48391;49.184;2.418;2023-09-12T08:19:06;1.08;;;1.00;;
62353;SDS011;48391;49.184;2.418;2023-09-12T08:21:32;1.00;;;0.88;;
62353;SDS011;48391;49.184;2.418;2023-09-12T08:23:58;0.50;;;0.50;;
62353;SDS011;48391;49.184;2.418;2023-09-12T08:26:24;0.93;;;0.80;;
62353;SDS011;48391;49.184;2.418;2023-09-12T08:28:51;1.20;;;0.73;;
62353;SDS011;48391;49.184;2.418;2023-09-12T08:31:17;1.65;;;1.15;;
62353;SDS011;48391;49.184;2.418;2023-09-12T08:33:43;0.90;;;0.80;;
62353;SDS011;48391;49.184;2.418;2023-09-12T08:36:09;2.42;;;0.93;;
62353;SDS011;48391;49.184;2.418;2023-09-12T08:38:35;0.50;;;0.50;;
62353;SDS011;48391;49.184;2.418;2023-09-12T08:41:01;1.65;;;1.45;;
62353;SDS011;48391;49.184;2.418;2023-09-12T08:43:27;0.93;;;0.93;;
62353;SDS011;48391;49.184;2.418;2023-09-12T08:45:54;2.00;;;1.20;;
62353;SDS011;48391;49.184;2.418;2023-09-12T08:48:20;0.50;;;0.50;;
62353;SDS011;48391;49.184;2.418;2023-09-12T08:50:47;0.47;;;0.47;;
62353;SDS011;48391;49.184;2.418;2023-09-12T08:53:13;0.88;;;0.88;;
62353;SDS011;48391;49.184;2.418;2023-09-12T08:55:40;1.90;;;1.15;;
62353;SDS011;48391;49.184;2.418;2023-09-12T08:58:06;1.27;;;1.00;;
62353;SDS011;48391;49.184;2.418;2023-09-12T09:00:32;0.68;;;0.65;;
62353;SDS011;48391;49.184;2.418;2023-09-12T09:02:58;0.65;;;0.65;;
62353;SDS011;48391;49.184;2.418;2023-09-12T09:05:24;0.77;;;0.77;;
62353;SDS011;48391;49.184;2.418;2023-09-12T09:07:51;0.70;;;0.40;;
62353;SDS011;48391;49.184;2.418;2023-09-12T09:10:18;0.50;;;0.50;;
62353;SDS011;48391;49.184;2.418;2023-09-12T09:12:46;1.33;;;0.65;;
62353;SDS011;48391;49.184;2.418;2023-09-12T09:15:28;0.50;;;0.47;;
62353;SDS011;48391;49.184;2.418;2023-09-12T09:17:55;0.75;;;0.75;;
62353;SDS011;48391;49.184;2.418;2023-09-12T09:20:31;0.60;;;0.50;;
62353;SDS011;48391;49.184;2.418;2023-09-12T09:23:06;0.55;;;0.40;;
62353;SDS011;48391;49.184;2.418;2023-09-12T09:25:42;0.55;;;0.55;;
62353;SDS011;48391;49.184;2.418;2023-09-12T09:28:18;0.45;;;0.40;;
62353;SDS011;48391;49.184;2.418;2023-09-12T09:30:48;0.68;;;0.47;;
62353;SDS011;48391;49.184;2.418;2023-09-12T09:33:15;0.63;;;0.40;;
62353;SDS011;48391;49.184;2.418;2023-09-12T09:35:42;1.48;;;0.77;;
62353;SDS011;48391;49.184;2.418;2023-09-12T09:38:08;1.20;;;0.60;;
62353;SDS011;48391;49.184;2.418;2023-09-12T09:40:35;1.10;;;0.98;;
62353;SDS011;48391;49.184;2.418;2023-09-12T09:43:01;1.85;;;0.73;;
62353;SDS011;48391;49.184;2.418;2023-09-12T09:45:29;0.47;;;0.45;;
62353;SDS011;48391;49.184;2.418;2023-09-12T09:47:59;0.40;;;0.40;;
62353;SDS011;48391;49.184;2.418;2023-09-12T09:50:33;0.55;;;0.55;;
62353;SDS011;48391;49.184;2.418;2023-09-12T09:53:01;0.88;;;0.65;;
62353;SDS011;48391;49.184;2.418;2023-09-12T09:55:29;0.50;;;0.50;;
62353;SDS011;48391;49.184;2.418;2023-09-12T09:57:55;0.40;;;0.40;;
62353;SDS011;48391;49.184;2.418;2023-09-12T10:00:22;0.32;;;0.32;;
62353;SDS011;48391;49.184;2.418;2023-09-12T10:02:49;0.10;;;0.10;;
62353;SDS011;48391;49.184;2.418;2023-09-12T10:05:16;0.75;;;0.75;;
62353;SDS011;48391;49.184;2.418;2023-09-12T10:07:42;0.50;;;0.43;;
62353;SDS011;48391;49.184;2.418;2023-09-12T10:10:12;0.73;;;0.20;;
62353;SDS011;48391;49.184;2.418;2023-09-12T10:12:41;0.52;;;0.52;;
62353;SDS011;48391;49.184;2.418;2023-09-12T10:15:09;0.35;;;0.35;;
62353;SDS011;48391;49.184;2.418;2023-09-12T10:17:37;0.57;;;0.57;;
62353;SDS011;48391;49.184;2.418;2023-09-12T10:20:05;1.08;;;0.93;;
62353;SDS011;48391;49.184;2.418;2023-09-12T10:22:38;0.50;;;0.50;;
62353;SDS011;48391;49.184;2.418;2023-09-12T10:25:06;0.30;;;0.30;;
62353;SDS011;48391;49.184;2.418;2023-09-12T10:27:33;1.13;;;1.00;;
62353;SDS011;48391;49.184;2.418;2023-09-12T10:29:59;0.52;;;0.52;;
62353;SDS011;48391;49.184;2.418;2023-09-12T10:32:26;0.50;;;0.50;;
62353;SDS011;48391;49.184;2.418;2023-09-12T10:34:54;0.70;;;0.70;;
62353;SDS011;48391;49.184;2.418;2023-09-12T10:37:22;0.60;;;0.52;;
62353;SDS011;48391;49.184;2.418;2023-09-12T10:39:52;0.47;;;0.47;;
62353;SDS011;48391;49.184;2.418;2023-09-12T10:42:18;0.55;;;0.55;;
62353;SDS011;48391;49.184;2.418;2023-09-12T10:44:46;0.50;;;0.40;;
62353;SDS011;48391;49.184;2.418;2023-09-12T10:47:12;0.98;;;0.55;;
62353;SDS011;48391;49.184;2.418;2023-09-12T10:49:39;1.90;;;1.00;;
62353;SDS011;48391;49.184;2.418;2023-09-12T10:52:05;1.75;;;1.17;;
62353;SDS011;48391;49.184;2.418;2023-09-12T10:54:38;2.03;;;1.50;;
62353;SDS011;48391;49.184;2.418;2023-09-12T10:57:05;1.10;;;1.10;;
62353;SDS011;48391;49.184;2.418;2023-09-12T10:59:31;3.90;;;1.17;;
62353;SDS011;48391;49.184;2.418;2023-09-12T11:04:45;1.23;;;1.15;;
62353;SDS011;48391;49.184;2.418;2023-09-12T11:12:44;2.40;;;1.23;;
62353;SDS011;48391;49.184;2.418;2023-09-12T11:15:10;1.15;;;1.05;;
62353;SDS011;48391;49.184;2.418;2023-09-12T11:17:40;0.70;;;0.70;;
62353;SDS011;48391;49.184;2.418;2023-09-12T11:20:06;1.00;;;0.93;;
62353;SDS011;48391;49.184;2.418;2023-09-12T11:22:46;0.70;;;0.70;;
62353;SDS011;48391;49.184;2.418;2023-09-12T11:25:22;1.15;;;0.75;;
62353;SDS011;48391;49.184;2.418;2023-09-12T11:32:44;1.02;;;0.50;;
62353;SDS011;48391;49.184;2.418;2023-09-12T11:35:10;0.70;;;0.70;;
62353;SDS011;48391;49.184;2.418;2023-09-12T11:37:36;0.68;;;0.45;;
62353;SDS011;48391;49.184;2.418;2023-09-12T11:40:15;0.82;;;0.57;;
62353;SDS011;48391;49.184;2.418;2023-09-12T11:42:42;0.38;;;0.38;;
62353;SDS011;48391;49.184;2.418;2023-09-12T11:45:09;0.77;;;0.77;;
62353;SDS011;48391;49.184;2.418;2023-09-12T11:47:39;0.57;;;0.52;;
62353;SDS011;48391;49.184;2.418;2023-09-12T11:50:05;0.35;;;0.35;;
62353;SDS011;48391;49.184;2.418;2023-09-12T11:52:35;0.60;;;0.60;;
62353;SDS011;48391;49.184;2.418;2023-09-12T11:55:03;0.80;;;0.80;;
62353;SDS011;48391;49.184;2.418;2023-09-12T11:57:29;0.80;;;0.80;;
62353;SDS011;48391;49.184;2.418;2023-09-12T11:59:57;0.52;;;0.50;;
62353;SDS011;48391;49.184;2.418;2023-09-12T12:02:23;0.57;;;0.57;;
62353;SDS011;48391;49.184;2.418;2023-09-12T12:04:49;0.40;;;0.40;;
62353;SDS011;48391;49.184;2.418;2023-09-12T12:07:15;0.45;;;0.40;;
62353;SDS011;48391;49.184;2.418;2023-09-12T12:09:42;0.88;;;0.57;;
62353;SDS011;48391;49.184;2.418;2023-09-12T12:14:35;0.40;;;0.40;;
62353;SDS011;48391;49.184;2.418;2023-09-12T12:17:05;0.60;;;0.45;;
62353;SDS011;48391;49.184;2.418;2023-09-12T12:19:31;0.68;;;0.60;;
62353;SDS011;48391;49.184;2.418;2023-09-12T12:21:57;0.88;;;0.88;;
62353;SDS011;48391;49.184;2.418;2023-09-12T12:24:23;0.65;;;0.65;;
62353;SDS011;48391;49.184;2.418;2023-09-12T12:26:49;1.17;;;0.47;;
62353;SDS011;48391;49.184;2.418;2023-09-12T12:29:16;0.60;;;0.57;;
62353;SDS011;48391;49.184;2.418;2023-09-12T12:31:42;0.60;;;0.60;;
62353;SDS011;48391;49.184;2.418;2023-09-12T12:34:08;0.68;;;0.68;;
62353;SDS011;48391;49.184;2.418;2023-09-12T12:36:40;0.90;;;0.90;;
62353;SDS011;48391;49.184;2.418;2023-09-12T12:39:07;1.00;;;0.95;;
62353;SDS011;48391;49.184;2.418;2023-09-12T12:41:37;2.25;;;1.75;;
62353;SDS011;48391;49.184;2.418;2023-09-12T12:44:03;1.17;;;1.13;;
62353;SDS011;48391;49.184;2.418;2023-09-12T12:46:30;1.50;;;1.30;;
62353;SDS011;48391;49.184;2.418;2023-09-12T12:48:56;1.55;;;0.80;;
62353;SDS011;48391;49.184;2.418;2023-09-12T12:51:23;1.48;;;1.38;;
62353;SDS011;48391;49.184;2.418;2023-09-12T12:53:50;0.88;;;0.88;;
62353;SDS011;48391;49.184;2.418;2023-09-12T12:56:17;2.13;;;1.30;;
62353;SDS011;48391;49.184;2.418;2023-09-12T12:58:50;1.63;;;0.88;;
62353;SDS011;48391;49.184;2.418;2023-09-12T13:01:17;1.05;;;1.05;;
62353;SDS011;48391;49.184;2.418;2023-09-12T13:03:43;0.85;;;0.82;;
62353;SDS011;48391;49.184;2.418;2023-09-12T13:06:10;0.80;;;0.80;;
62353;SDS011;48391;49.184;2.418;2023-09-12T13:08:40;1.23;;;0.85;;
62353;SDS011;48391;49.184;2.418;2023-09-12T13:11:07;1.50;;;1.40;;
62353;SDS011;48391;49.184;2.418;2023-09-12T13:13:33;1.15;;;0.95;;
62353;SDS011;48391;49.184;2.418;2023-09-12T13:15:59;1.75;;;1.65;;
62353;SDS011;48391;49.184;2.418;2023-09-12T13:18:25;1.95;;;1.33;;
62353;SDS011;48391;49.184;2.418;2023-09-12T13:20:51;1.40;;;1.30;;
62353;SDS011;48391;49.184;2.418;2023-09-12T13:23:21;2.03;;;1.17;;
62353;SDS011;48391;49.184;2.418;2023-09-12T13:25:49;1.00;;;0.88;;
62353;SDS011;48391;49.184;2.418;2023-09-12T13:28:15;0.85;;;0.82;;
62353;SDS011;48391;49.184;2.418;2023-09-12T13:30:42;1.20;;;1.10;;
62353;SDS011;48391;49.184;2.418;2023-09-12T13:33:09;0.95;;;0.90;;
62353;SDS011;48391;49.184;2.418;2023-09-12T13:35:36;1.15;;;1.02;;
62353;SDS011;48391;49.184;2.418;2023-09-12T13:38:02;1.13;;;1.13;;
62353;SDS011;48391;49.184;2.418;2023-09-12T13:40:35;1.58;;;1.42;;
62353;SDS011;48391;49.184;2.418;2023-09-12T13:43:02;0.70;;;0.70;;
62353;SDS011;48391;49.184;2.418;2023-09-12T13:45:28;1.13;;;0.90;;
62353;SDS011;48391;49.184;2.418;2023-09-12T13:47:54;1.10;;;1.02;;
62353;SDS011;48391;49.184;2.418;2023-09-12T13:50:21;2.72;;;1.92;;
62353;SDS011;48391;49.184;2.418;2023-09-12T13:52:48;1.30;;;1.20;;
62353;SDS011;48391;49.184;2.418;2023-09-12T13:55:14;1.65;;;1.55;;
62353;SDS011;48391;49.184;2.418;2023-09-12T13:57:41;5.80;;;2.33;;
62353;SDS011;48391;49.184;2.418;2023-09-12T14:00:07;2.00;;;1.90;;
62353;SDS011;48391;49.184;2.418;2023-09-12T14:02:33;1.67;;;1.58;;
62353;SDS011;48391;49.184;2.418;2023-09-12T14:04:59;2.72;;;2.53;;
62353;SDS011;48391;49.184;2.418;2023-09-12T14:07:25;2.92;;;2.67;;
62353;SDS011;48391;49.184;2.418;2023-09-12T14:09:52;2.65;;;2.45;;
62353;SDS011;48391;49.184;2.418;2023-09-12T14:12:22;3.38;;;2.83;;
62353;SDS011;48391;49.184;2.418;2023-09-12T14:14:48;2.63;;;1.98;;
62353;SDS011;48391;49.184;2.418;2023-09-12T14:17:14;3.00;;;2.50;;
62353;SDS011;48391;49.184;2.418;2023-09-12T14:19:40;1.63;;;1.52;;
62353;SDS011;48391;49.184;2.418;2023-09-12T14:22:06;1.20;;;1.10;;
62353;SDS011;48391;49.184;2.418;2023-09-12T14:24:32;1.77;;;1.67;;
62353;SDS011;48391;49.184;2.418;2023-09-12T14:26:58;1.40;;;1.30;;
62353;SDS011;48391;49.184;2.418;2023-09-12T14:29:25;0.98;;;0.95;;
62353;SDS011;48391;49.184;2.418;2023-09-12T14:31:53;1.13;;;1.10;;
62353;SDS011;48391;49.184;2.418;2023-09-12T14:34:31;0.85;;;0.85;;
62353;SDS011;48391;49.184;2.418;2023-09-12T14:36:58;1.35;;;1.25;;
62353;SDS011;48391;49.184;2.418;2023-09-12T14:39:24;2.28;;;0.90;;
62353;SDS011;48391;49.184;2.418;2023-09-12T14:41:51;0.82;;;0.82;;
62353;SDS011;48391;49.184;2.418;2023-09-12T14:44:20;0.90;;;0.90;;
62353;SDS011;48391;49.184;2.418;2023-09-12T14:46:46;1.15;;;1.05;;
62353;SDS011;48391;49.184;2.418;2023-09-12T14:49:12;0.60;;;0.60;;
62353;SDS011;48391;49.184;2.418;2023-09-12T14:51:38;0.55;;;0.55;;
62353;SDS011;48391;49.184;2.418;2023-09-12T14:54:05;0.32;;;0.32;;
62353;SDS011;48391;49.184;2.418;2023-09-12T14:56:32;0.65;;;0.65;;
62353;SDS011;48391;49.184;2.418;2023-09-12T14:58:58;0.50;;;0.50;;
62353;SDS011;48391;49.184;2.418;2023-09-12T15:01:24;0.30;;;0.30;;
62353;SDS011;48391;49.184;2.418;2023-09-12T15:03:51;0.95;;;0.95;;
62353;SDS011;48391;49.184;2.418;2023-09-12T15:06:17;1.17;;;0.70;;
62353;SDS011;48391;49.184;2.418;2023-09-12T15:08:43;0.50;;;0.50;;
62353;SDS011;48391;49.184;2.418;2023-09-12T15:11:09;0.50;;;0.40;;
62353;SDS011;48391;49.184;2.418;2023-09-12T15:13:36;0.50;;;0.50;;
62353;SDS011;48391;49.184;2.418;2023-09-12T15:16:02;1.00;;;0.40;;
62353;SDS011;48391;49.184;2.418;2023-09-12T15:18:28;0.50;;;0.50;;
62353;SDS011;48391;49.184;2.418;2023-09-12T15:20:54;0.95;;;0.70;;
62353;SDS011;48391;49.184;2.418;2023-09-12T15:23:20;0.50;;;0.43;;
62353;SDS011;48391;49.184;2.418;2023-09-12T15:25:48;0.50;;;0.50;;
62353;SDS011;48391;49.184;2.418;2023-09-12T15:28:14;0.50;;;0.50;;
62353;SDS011;48391;49.184;2.418;2023-09-12T15:30:40;0.50;;;0.50;;
62353;SDS011;48391;49.184;2.418;2023-09-12T15:33:06;1.40;;;1.30;;
62353;SDS011;48391;49.184;2.418;2023-09-12T15:35:32;0.60;;;0.60;;
62353;SDS011;48391;49.184;2.418;2023-09-12T15:37:58;0.32;;;0.32;;
62353;SDS011;48391;49.184;2.418;2023-09-12T15:40:25;0.60;;;0.60;;
62353;SDS011;48391;49.184;2.418;2023-09-12T15:42:51;1.55;;;0.75;;
62353;SDS011;48391;49.184;2.418;2023-09-12T15:45:17;0.75;;;0.75;;
62353;SDS011;48391;49.184;2.418;2023-09-12T15:47:44;0.60;;;0.60;;
62353;SDS011;48391;49.184;2.418;2023-09-12T15:50:10;0.40;;;0.40;;
62353;SDS011;48391;49.184;2.418;2023-09-12T15:52:36;0.43;;;0.40;;
62353;SDS011;48391;49.184;2.418;2023-09-12T15:55:04;0.40;;;0.40;;
62353;SDS011;48391;49.184;2.418;2023-09-12T15:57:30;0.30;;;0.30;;
62353;SDS011;48391;49.184;2.418;2023-09-12T15:59:56;0.52;;;0.50;;
62353;SDS011;48391;49.184;2.418;2023-09-12T16:02:22;0.80;;;0.80;;
62353;SDS011;48391;49.184;2.418;2023-09-12T16:04:48;0.75;;;0.68;;
62353;SDS011;48391;49.184;2.418;2023-09-12T16:07:14;0.60;;;0.50;;
62353;SDS011;48391;49.184;2.418;2023-09-12T16:09:40;0.60;;;0.60;;
62353;SDS011;48391;49.184;2.418;2023-09-12T16:12:06;0.50;;;0.40;;
62353;SDS011;48391;49.184;2.418;2023-09-12T16:14:32;0.35;;;0.35;;
62353;SDS011;48391;49.184;2.418;2023-09-12T16:16:58;0.60;;;0.40;;
62353;SDS011;48391;49.184;2.418;2023-09-12T16:19:24;0.40;;;0.40;;
62353;SDS011;48391;49.184;2.418;2023-09-12T16:21:50;0.47;;;0.35;;
62353;SDS011;48391;49.184;2.418;2023-09-12T16:24:16;1.30;;;0.30;;
62353;SDS011;48391;49.184;2.418;2023-09-12T16:26:42;0.20;;;0.20;;
62353;SDS011;48391;49.184;2.418;2023-09-12T16:29:08;0.88;;;0.88;;
62353;SDS011;48391;49.184;2.418;2023-09-12T16:31:34;1.33;;;0.50;;
62353;SDS011;48391;49.184;2.418;2023-09-12T16:34:00;0.50;;;0.43;;
62353;SDS011;48391;49.184;2.418;2023-09-12T16:36:26;0.80;;;0.60;;
62353;SDS011;48391;49.184;2.418;2023-09-12T16:38:52;1.08;;;1.08;;
62353;SDS011;48391;49.184;2.418;2023-09-12T16:41:18;0.50;;;0.50;;
62353;SDS011;48391;49.184;2.418;2023-09-12T16:43:44;0.40;;;0.40;;
62353;SDS011;48391;49.184;2.418;2023-09-12T16:46:10;0.88;;;0.88;;
62353;SDS011;48391;49.184;2.418;2023-09-12T16:48:36;0.55;;;0.55;;
62353;SDS011;48391;49.184;2.418;2023-09-12T16:51:03;0.75;;;0.75;;
62353;SDS011;48391;49.184;2.418;2023-09-12T16:53:29;1.15;;;1.13;;
62353;SDS011;48391;49.184;2.418;2023-09-12T16:55:55;1.10;;;1.08;;
62353;SDS011;48391;49.184;2.418;2023-09-12T16:58:23;0.90;;;0.90;;
62353;SDS011;48391;49.184;2.418;2023-09-12T17:00:49;0.77;;;0.77;;
62353;SDS011;48391;49.184;2.418;2023-09-12T17:03:15;1.15;;;1.15;;
62353;SDS011;48391;49.184;2.418;2023-09-12T17:05:41;1.67;;;1.58;;
62353;SDS011;48391;49.184;2.418;2023-09-12T17:08:07;1.55;;;1.42;;
62353;SDS011;48391;49.184;2.418;2023-09-12T17:10:33;1.55;;;1.45;;
62353;SDS011;48391;49.184;2.418;2023-09-12T17:12:59;1.52;;;1.42;;
62353;SDS011;48391;49.184;2.418;2023-09-12T17:15:25;0.90;;;0.90;;
62353;SDS011;48391;49.184;2.418;2023-09-12T17:17:51;1.42;;;1.15;;
62353;SDS011;48391;49.184;2.418;2023-09-12T17:20:18;0.95;;;0.82;;
62353;SDS011;48391;49.184;2.418;2023-09-12T17:22:44;0.93;;;0.93;;
62353;SDS011;48391;49.184;2.418;2023-09-12T17:25:10;1.45;;;1.35;;
62353;SDS011;48391;49.184;2.418;2023-09-12T17:27:38;1.38;;;1.13;;
62353;SDS011;48391;49.184;2.418;2023-09-12T17:30:06;1.30;;;1.20;;
62353;SDS011;48391;49.184;2.418;2023-09-12T17:32:33;1.25;;;1.15;;
62353;SDS011;48391;49.184;2.418;2023-09-12T17:34:59;1.05;;;1.05;;
62353;SDS011;48391;49.184;2.418;2023-09-12T17:37:27;1.17;;;1.17;;
62353;SDS011;48391;49.184;2.418;2023-09-12T17:39:53;0.93;;;0.93;;
62353;SDS011;48391;49.184;2.418;2023-09-12T17:42:20;0.68;;;0.68;;
62353;SDS011;48391;49.184;2.418;2023-09-12T17:44:46;1.02;;;1.02;;
62353;SDS011;48391;49.184;2.418;2023-09-12T17:47:12;1.00;;;1.00;;
62353;SDS011;48391;49.184;2.418;2023-09-12T17:49:38;1.00;;;1.00;;
62353;SDS011;48391;49.184;2.418;2023-09-12T17:52:04;1.13;;;0.95;;
62353;SDS011;48391;49.184;2.418;2023-09-12T17:54:33;0.98;;;0.90;;
62353;SDS011;48391;49.184;2.418;2023-09-12T17:56:59;1.20;;;1.10;;
62353;SDS011;48391;49.184;2.418;2023-09-12T17:59:25;1.10;;;1.10;;
62353;SDS011;48391;49.184;2.418;2023-09-12T18:01:51;1.35;;;1.17;;
62353;SDS011;48391;49.184;2.418;2023-09-12T18:04:17;0.70;;;0.70;;
62353;SDS011;48391;49.184;2.418;2023-09-12T18:06:44;1.00;;;1.00;;
62353;SDS011;48391;49.184;2.418;2023-09-12T18:09:10;0.88;;;0.88;;
62353;SDS011;48391;49.184;2.418;2023-09-12T18:11:36;1.02;;;0.90;;
62353;SDS011;48391;49.184;2.418;2023-09-12T18:14:02;0.90;;;0.90;;
62353;SDS011;48391;49.184;2.418;2023-09-12T18:16:29;1.20;;;1.10;;
62353;SDS011;48391;49.184;2.418;2023-09-12T18:18:55;0.82;;;0.82;;
62353;SDS011;48391;49.184;2.418;2023-09-12T18:21:21;2.08;;;1.48;;
62353;SDS011;48391;49.184;2.418;2023-09-12T18:23:47;1.00;;;1.00;;
62353;SDS011;48391;49.184;2.418;2023-09-12T18:26:13;1.25;;;1.25;;
62353;SDS011;48391;49.184;2.418;2023-09-12T18:28:43;1.20;;;1.20;;
62353;SDS011;48391;49.184;2.418;2023-09-12T18:31:10;1.23;;;1.13;;
62353;SDS011;48391;49.184;2.418;2023-09-12T18:33:37;1.40;;;1.30;;
62353;SDS011;48391;49.184;2.418;2023-09-12T18:36:03;1.77;;;1.30;;
62353;SDS011;48391;49.184;2.418;2023-09-12T18:38:29;1.55;;;1.45;;
62353;SDS011;48391;49.184;2.418;2023-09-12T18:40:55;1.30;;;1.20;;
62353;SDS011;48391;49.184;2.418;2023-09-12T18:43:22;0.85;;;0.82;;
62353;SDS011;48391;49.184;2.418;2023-09-12T18:45:49;1.42;;;1.02;;
62353;SDS011;48391;49.184;2.418;2023-09-12T18:48:15;1.30;;;1.20;;
62353;SDS011;48391;49.184;2.418;2023-09-12T18:50:42;1.20;;;1.10;;
62353;SDS011;48391;49.184;2.418;2023-09-12T18:53:11;0.98;;;0.82;;
62353;SDS011;48391;49.184;2.418;2023-09-12T18:55:42;1.33;;;1.23;;
62353;SDS011;48391;49.184;2.418;2023-09-12T18:58:09;1.58;;;1.48;;
62353;SDS011;48391;49.184;2.418;2023-09-12T19:00:36;1.90;;;1.75;;
62353;SDS011;48391;49.184;2.418;2023-09-12T19:03:03;1.73;;;1.63;;
62353;SDS011;48391;49.184;2.418;2023-09-12T19:05:30;1.67;;;1.58;;
62353;SDS011;48391;49.184;2.418;2023-09-12T19:07:56;1.08;;;1.00;;
62353;SDS011;48391;49.184;2.418;2023-09-12T19:10:22;1.45;;;1.35;;
62353;SDS011;48391;49.184;2.418;2023-09-12T19:12:48;1.83;;;1.65;;
62353;SDS011;48391;49.184;2.418;2023-09-12T19:15:14;1.00;;;1.00;;
62353;SDS011;48391;49.184;2.418;2023-09-12T19:17:41;0.80;;;0.80;;
62353;SDS011;48391;49.184;2.418;2023-09-12T19:20:07;0.85;;;0.85;;
62353;SDS011;48391;49.184;2.418;2023-09-12T19:22:34;1.10;;;1.00;;
62353;SDS011;48391;49.184;2.418;2023-09-12T19:25:00;0.80;;;0.80;;
62353;SDS011;48391;49.184;2.418;2023-09-12T19:27:27;0.90;;;0.90;;
62353;SDS011;48391;49.184;2.418;2023-09-12T19:29:53;1.10;;;1.05;;
62353;SDS011;48391;49.184;2.418;2023-09-12T19:32:20;1.05;;;1.05;;
62353;SDS011;48391;49.184;2.418;2023-09-12T19:34:46;1.02;;;0.85;;
62353;SDS011;48391;49.184;2.418;2023-09-12T19:37:12;0.50;;;0.50;;
62353;SDS011;48391;49.184;2.418;2023-09-12T19:39:38;0.70;;;0.70;;
62353;SDS011;48391;49.184;2.418;2023-09-12T19:42:05;0.77;;;0.77;;
62353;SDS011;48391;49.184;2.418;2023-09-12T19:44:31;0.98;;;0.93;;
62353;SDS011;48391;49.184;2.418;2023-09-12T19:46:57;0.75;;;0.75;;
62353;SDS011;48391;49.184;2.418;2023-09-12T19:49:23;0.45;;;0.45;;
62353;SDS011;48391;49.184;2.418;2023-09-12T19:51:50;0.70;;;0.70;;
62353;SDS011;48391;49.184;2.418;2023-09-12T19:54:16;0.52;;;0.52;;
62353;SDS011;48391;49.184;2.418;2023-09-12T19:56:43;0.82;;;0.60;;
62353;SDS011;48391;49.184;2.418;2023-09-12T19:59:09;0.50;;;0.50;;
62353;SDS011;48391;49.184;2.418;2023-09-12T20:01:35;0.80;;;0.80;;
62353;SDS011;48391;49.184;2.418;2023-09-12T20:04:01;1.42;;;0.40;;
62353;SDS011;48391;49.184;2.418;2023-09-12T20:06:27;0.57;;;0.52;;
62353;SDS011;48391;49.184;2.418;2023-09-12T20:08:53;0.55;;;0.55;;
62353;SDS011;48391;49.184;2.418;2023-09-12T20:11:19;0.60;;;0.60;;
62353;SDS011;48391;49.184;2.418;2023-09-12T20:13:45;0.52;;;0.50;;
62353;SDS011;48391;49.184;2.418;2023-09-12T20:16:15;0.38;;;0.38;;
62353;SDS011;48391;49.184;2.418;2023-09-12T20:18:41;0.55;;;0.38;;
62353;SDS011;48391;49.184;2.418;2023-09-12T20:21:07;0.40;;;0.40;;
62353;SDS011;48391;49.184;2.418;2023-09-12T20:23:33;0.55;;;0.55;;
62353;SDS011;48391;49.184;2.418;2023-09-12T20:26:00;0.40;;;0.40;;
62353;SDS011;48391;49.184;2.418;2023-09-12T20:28:32;0.30;;;0.30;;
62353;SDS011;48391;49.184;2.418;2023-09-12T20:30:59;0.60;;;0.60;;
62353;SDS011;48391;49.184;2.418;2023-09-12T20:33:25;0.55;;;0.55;;
62353;SDS011;48391;49.184;2.418;2023-09-12T20:35:51;0.55;;;0.55;;
62353;SDS011;48391;49.184;2.418;2023-09-12T20:38:18;0.60;;;0.60;;
62353;SDS011;48391;49.184;2.418;2023-09-12T20:40:45;1.35;;;0.70;;
62353;SDS011;48391;49.184;2.418;2023-09-12T20:43:11;0.63;;;0.63;;
62353;SDS011;48391;49.184;2.418;2023-09-12T20:45:37;0.75;;;0.73;;
62353;SDS011;48391;49.184;2.418;2023-09-12T20:48:03;0.98;;;0.93;;
62353;SDS011;48391;49.184;2.418;2023-09-12T20:50:29;0.50;;;0.50;;
62353;SDS011;48391;49.184;2.418;2023-09-12T20:52:56;0.60;;;0.60;;
62353;SDS011;48391;49.184;2.418;2023-09-12T20:55:23;0.85;;;0.82;;
62353;SDS011;48391;49.184;2.418;2023-09-12T20:57:49;0.52;;;0.47;;
62353;SDS011;48391;49.184;2.418;2023-09-12T21:00:15;0.60;;;0.60;;
62353;SDS011;48391;49.184;2.418;2023-09-12T21:02:41;0.70;;;0.70;;
62353;SDS011;48391;49.184;2.418;2023-09-12T21:05:10;0.68;;;0.68;;
62353;SDS011;48391;49.184;2.418;2023-09-12T21:07:36;0.88;;;0.88;;
62353;SDS011;48391;49.184;2.418;2023-09-12T21:10:03;0.98;;;0.90;;
62353;SDS011;48391;49.184;2.418;2023-09-12T21:12:29;0.77;;;0.77;;